San Juan Bautista, California
Current Conditions -  °F | °C
As of 5:35 PM on Monday 20 Oct 2014 (Local Time) from KCVH Reporting Station
Overcast Overcast  
Wind Chill: 63°   Ceiling: 4200
Heat Index: 63°   Visibility: 10mi
Dew Point: 61°   Wind: 5mph
Humidity: 94%   Direction: 250°WSW
Pressure: 29.99"   Gusts: NA
Location:  36.85°N, 121.54°W
Report Text: KCVH 210035Z AUTO 25004KT 10SM FEW018 SCT030 OVC042 17/16 A2999 RMK AO1
Loading
Personal Weather Stations






























Interactive Weather Map
Tropical Storm Tracking
New forecast layout! Learn more

10-Day Weather Forecast

Advertisements
Track Severe Weather on mobile